sensor_id;sensor_type;location;lat;lon;timestamp;pressure;altitude;pressure_sealevel;temperature;humidity
74790;BME280;63318;52.406;13.416;2023-03-03T00:01:34;101935.70;;;0.43;79.88
74790;BME280;63318;52.406;13.416;2023-03-03T00:04:02;101941.67;;;0.43;80.00
74790;BME280;63318;52.406;13.416;2023-03-03T00:06:31;101943.05;;;0.42;79.87
74790;BME280;63318;52.406;13.416;2023-03-03T00:08:59;101944.56;;;0.42;79.85
74790;BME280;63318;52.406;13.416;2023-03-03T00:11:28;101942.78;;;0.41;79.94
74790;BME280;63318;52.406;13.416;2023-03-03T00:13:56;101945.27;;;0.40;80.09
74790;BME280;63318;52.406;13.416;2023-03-03T00:16:27;101954.20;;;0.40;79.90
74790;BME280;63318;52.406;13.416;2023-03-03T00:18:56;101962.13;;;0.38;79.78
74790;BME280;63318;52.406;13.416;2023-03-03T00:21:28;101963.05;;;0.36;79.43
74790;BME280;63318;52.406;13.416;2023-03-03T00:24:10;101966.83;;;0.35;79.45
74790;BME280;63318;52.406;13.416;2023-03-03T00:26:40;101974.24;;;0.34;79.70
74790;BME280;63318;52.406;13.416;2023-03-03T00:29:28;101966.02;;;0.33;79.57
74790;BME280;63318;52.406;13.416;2023-03-03T00:32:03;101966.73;;;0.31;79.67
74790;BME280;63318;52.406;13.416;2023-03-03T00:34:37;101961.13;;;0.31;79.70
74790;BME280;63318;52.406;13.416;2023-03-03T00:37:21;101961.16;;;0.31;79.74
74790;BME280;63318;52.406;13.416;2023-03-03T00:39:50;101950.15;;;0.28;79.31
74790;BME280;63318;52.406;13.416;2023-03-03T00:42:19;101945.14;;;0.26;79.35
74790;BME280;63318;52.406;13.416;2023-03-03T00:44:51;101938.17;;;0.25;79.12
74790;BME280;63318;52.406;13.416;2023-03-03T00:47:28;101936.31;;;0.24;79.20
74790;BME280;63318;52.406;13.416;2023-03-03T00:50:20;101937.10;;;0.23;79.52
74790;BME280;63318;52.406;13.416;2023-03-03T00:52:59;101935.11;;;0.23;79.42
74790;BME280;63318;52.406;13.416;2023-03-03T00:55:28;101939.67;;;0.23;79.44
74790;BME280;63318;52.406;13.416;2023-03-03T00:57:56;101941.14;;;0.23;79.44
74790;BME280;63318;52.406;13.416;2023-03-03T01:00:25;101934.84;;;0.22;79.35
74790;BME280;63318;52.406;13.416;2023-03-03T01:02:53;101924.48;;;0.22;79.32
74790;BME280;63318;52.406;13.416;2023-03-03T01:05:21;101931.16;;;0.23;79.66
74790;BME280;63318;52.406;13.416;2023-03-03T01:07:49;101927.44;;;0.22;79.21
74790;BME280;63318;52.406;13.416;2023-03-03T01:10:18;101928.70;;;0.20;79.24
74790;BME280;63318;52.406;13.416;2023-03-03T01:12:47;101927.89;;;0.19;79.28
74790;BME280;63318;52.406;13.416;2023-03-03T01:15:17;101926.05;;;0.20;78.94
74790;BME280;63318;52.406;13.416;2023-03-03T01:17:46;101931.52;;;0.18;79.24
74790;BME280;63318;52.406;13.416;2023-03-03T01:20:16;101923.08;;;0.17;79.30
74790;BME280;63318;52.406;13.416;2023-03-03T01:22:46;101923.37;;;0.16;79.13
74790;BME280;63318;52.406;13.416;2023-03-03T01:25:16;101920.52;;;0.17;79.21
74790;BME280;63318;52.406;13.416;2023-03-03T01:27:44;101920.14;;;0.17;79.24
74790;BME280;63318;52.406;13.416;2023-03-03T01:30:14;101921.33;;;0.16;79.33
74790;BME280;63318;52.406;13.416;2023-03-03T01:32:44;101916.35;;;0.17;79.48
74790;BME280;63318;52.406;13.416;2023-03-03T01:35:13;101908.40;;;0.18;79.29
74790;BME280;63318;52.406;13.416;2023-03-03T01:37:42;101912.90;;;0.18;79.74
74790;BME280;63318;52.406;13.416;2023-03-03T01:40:14;101913.55;;;0.19;79.48
74790;BME280;63318;52.406;13.416;2023-03-03T01:42:43;101908.24;;;0.19;79.30
74790;BME280;63318;52.406;13.416;2023-03-03T01:45:16;101899.61;;;0.20;79.00
74790;BME280;63318;52.406;13.416;2023-03-03T01:47:49;101896.84;;;0.19;78.97
74790;BME280;63318;52.406;13.416;2023-03-03T01:50:35;101892.73;;;0.16;79.26
74790;BME280;63318;52.406;13.416;2023-03-03T01:53:10;101889.26;;;0.15;79.18
74790;BME280;63318;52.406;13.416;2023-03-03T01:55:41;101892.27;;;0.14;79.06
74790;BME280;63318;52.406;13.416;2023-03-03T01:58:12;101894.70;;;0.14;79.40
74790;BME280;63318;52.406;13.416;2023-03-03T02:00:43;101893.11;;;0.15;79.18
74790;BME280;63318;52.406;13.416;2023-03-03T02:03:12;101893.69;;;0.14;79.02
74790;BME280;63318;52.406;13.416;2023-03-03T02:05:42;101893.25;;;0.15;79.06
74790;BME280;63318;52.406;13.416;2023-03-03T02:08:13;101892.52;;;0.15;79.15
74790;BME280;63318;52.406;13.416;2023-03-03T02:10:42;101894.59;;;0.16;79.16
74790;BME280;63318;52.406;13.416;2023-03-03T02:13:12;101892.08;;;0.17;79.20
74790;BME280;63318;52.406;13.416;2023-03-03T02:15:41;101885.17;;;0.17;79.19
74790;BME280;63318;52.406;13.416;2023-03-03T02:18:11;101887.84;;;0.18;79.16
74790;BME280;63318;52.406;13.416;2023-03-03T02:20:48;101892.60;;;0.17;79.12
74790;BME280;63318;52.406;13.416;2023-03-03T02:23:25;101903.83;;;0.18;79.28
74790;BME280;63318;52.406;13.416;2023-03-03T02:26:06;101907.48;;;0.18;78.94
74790;BME280;63318;52.406;13.416;2023-03-03T02:28:37;101908.16;;;0.18;79.59
74790;BME280;63318;52.406;13.416;2023-03-03T02:31:07;101904.22;;;0.19;79.20
74790;BME280;63318;52.406;13.416;2023-03-03T02:33:35;101899.61;;;0.20;79.35
74790;BME280;63318;52.406;13.416;2023-03-03T02:36:04;101895.06;;;0.20;79.10
74790;BME280;63318;52.406;13.416;2023-03-03T02:38:38;101909.72;;;0.19;79.26
74790;BME280;63318;52.406;13.416;2023-03-03T02:41:14;101909.92;;;0.19;79.30
74790;BME280;63318;52.406;13.416;2023-03-03T02:43:48;101909.77;;;0.19;79.29
74790;BME280;63318;52.406;13.416;2023-03-03T02:46:19;101913.38;;;0.19;79.22
74790;BME280;63318;52.406;13.416;2023-03-03T02:48:48;101908.95;;;0.18;79.32
74790;BME280;63318;52.406;13.416;2023-03-03T02:51:16;101905.46;;;0.18;79.24
74790;BME280;63318;52.406;13.416;2023-03-03T02:53:44;101900.07;;;0.18;79.01
74790;BME280;63318;52.406;13.416;2023-03-03T02:56:13;101901.23;;;0.17;79.20
74790;BME280;63318;52.406;13.416;2023-03-03T02:58:41;101904.38;;;0.17;79.53
74790;BME280;63318;52.406;13.416;2023-03-03T03:01:09;101908.44;;;0.16;79.43
74790;BME280;63318;52.406;13.416;2023-03-03T03:03:39;101907.45;;;0.15;79.67
74790;BME280;63318;52.406;13.416;2023-03-03T03:06:07;101899.73;;;0.14;79.52
74790;BME280;63318;52.406;13.416;2023-03-03T03:08:35;101892.71;;;0.13;79.17
74790;BME280;63318;52.406;13.416;2023-03-03T03:11:04;101898.83;;;0.12;79.21
74790;BME280;63318;52.406;13.416;2023-03-03T03:13:33;101904.13;;;0.13;79.51
74790;BME280;63318;52.406;13.416;2023-03-03T03:16:01;101911.87;;;0.11;79.36
74790;BME280;63318;52.406;13.416;2023-03-03T03:18:30;101919.74;;;0.10;79.53
74790;BME280;63318;52.406;13.416;2023-03-03T03:21:06;101921.11;;;0.09;79.27
74790;BME280;63318;52.406;13.416;2023-03-03T03:23:36;101918.79;;;0.09;79.29
74790;BME280;63318;52.406;13.416;2023-03-03T03:26:05;101916.02;;;0.07;79.65
74790;BME280;63318;52.406;13.416;2023-03-03T03:28:33;101925.30;;;0.07;79.68
74790;BME280;63318;52.406;13.416;2023-03-03T03:31:02;101927.11;;;0.07;79.68
74790;BME280;63318;52.406;13.416;2023-03-03T03:33:31;101934.94;;;0.08;79.72
74790;BME280;63318;52.406;13.416;2023-03-03T03:35:59;101934.50;;;0.07;79.23
74790;BME280;63318;52.406;13.416;2023-03-03T03:38:27;101930.79;;;0.06;79.51
74790;BME280;63318;52.406;13.416;2023-03-03T03:40:56;101926.58;;;0.04;79.49
74790;BME280;63318;52.406;13.416;2023-03-03T03:43:24;101930.99;;;0.02;79.48
74790;BME280;63318;52.406;13.416;2023-03-03T03:45:53;101927.86;;;0.01;79.90
74790;BME280;63318;52.406;13.416;2023-03-03T03:48:22;101932.48;;;0.00;79.71
74790;BME280;63318;52.406;13.416;2023-03-03T03:50:50;101934.26;;;-0.01;79.91
74790;BME280;63318;52.406;13.416;2023-03-03T03:53:19;101931.63;;;-0.02;79.73
74790;BME280;63318;52.406;13.416;2023-03-03T03:55:47;101929.45;;;-0.02;79.90
74790;BME280;63318;52.406;13.416;2023-03-03T03:58:16;101927.92;;;-0.03;79.67
74790;BME280;63318;52.406;13.416;2023-03-03T04:00:45;101923.95;;;-0.03;80.07
74790;BME280;63318;52.406;13.416;2023-03-03T04:03:14;101919.08;;;-0.04;79.99
74790;BME280;63318;52.406;13.416;2023-03-03T04:05:42;101913.20;;;-0.05;79.99
74790;BME280;63318;52.406;13.416;2023-03-03T04:08:11;101909.05;;;-0.05;79.77
74790;BME280;63318;52.406;13.416;2023-03-03T04:10:39;101903.44;;;-0.05;80.05
74790;BME280;63318;52.406;13.416;2023-03-03T04:13:08;101901.06;;;-0.07;79.79
74790;BME280;63318;52.406;13.416;2023-03-03T04:15:36;101904.08;;;-0.08;79.99
74790;BME280;63318;52.406;13.416;2023-03-03T04:18:04;101900.39;;;-0.09;79.82
74790;BME280;63318;52.406;13.416;2023-03-03T04:20:33;101900.66;;;-0.10;80.11
74790;BME280;63318;52.406;13.416;2023-03-03T04:23:01;101899.17;;;-0.11;80.07
74790;BME280;63318;52.406;13.416;2023-03-03T04:25:29;101897.12;;;-0.12;80.13
74790;BME280;63318;52.406;13.416;2023-03-03T04:27:58;101891.23;;;-0.13;79.77
74790;BME280;63318;52.406;13.416;2023-03-03T04:30:26;101895.08;;;-0.13;80.05
74790;BME280;63318;52.406;13.416;2023-03-03T04:32:54;101895.66;;;-0.13;80.16
74790;BME280;63318;52.406;13.416;2023-03-03T04:35:22;101893.94;;;-0.16;80.16
74790;BME280;63318;52.406;13.416;2023-03-03T04:37:51;101895.88;;;-0.17;80.04
74790;BME280;63318;52.406;13.416;2023-03-03T04:40:19;101897.52;;;-0.19;80.23
74790;BME280;63318;52.406;13.416;2023-03-03T04:42:47;101894.11;;;-0.21;80.17
74790;BME280;63318;52.406;13.416;2023-03-03T04:45:16;101893.79;;;-0.22;80.01
74790;BME280;63318;52.406;13.416;2023-03-03T04:47:44;101894.84;;;-0.23;80.24
74790;BME280;63318;52.406;13.416;2023-03-03T04:50:13;101888.20;;;-0.26;80.03
74790;BME280;63318;52.406;13.416;2023-03-03T04:52:41;101895.27;;;-0.27;80.23
74790;BME280;63318;52.406;13.416;2023-03-03T04:55:10;101892.67;;;-0.28;80.30
74790;BME280;63318;52.406;13.416;2023-03-03T04:57:39;101902.89;;;-0.32;80.07
74790;BME280;63318;52.406;13.416;2023-03-03T05:00:09;101904.94;;;-0.34;80.36
74790;BME280;63318;52.406;13.416;2023-03-03T05:02:37;101902.99;;;-0.34;80.32
74790;BME280;63318;52.406;13.416;2023-03-03T05:05:07;101901.17;;;-0.35;80.42
74790;BME280;63318;52.406;13.416;2023-03-03T05:07:35;101899.60;;;-0.36;80.31
74790;BME280;63318;52.406;13.416;2023-03-03T05:10:07;101901.80;;;-0.37;80.50
74790;BME280;63318;52.406;13.416;2023-03-03T05:12:35;101899.39;;;-0.38;80.60
74790;BME280;63318;52.406;13.416;2023-03-03T05:15:05;101895.73;;;-0.39;80.46
74790;BME280;63318;52.406;13.416;2023-03-03T05:17:33;101888.08;;;-0.42;80.51
74790;BME280;63318;52.406;13.416;2023-03-03T05:20:01;101878.21;;;-0.43;80.37
74790;BME280;63318;52.406;13.416;2023-03-03T05:22:29;101878.95;;;-0.45;80.62
74790;BME280;63318;52.406;13.416;2023-03-03T05:24:58;101886.39;;;-0.44;80.65
74790;BME280;63318;52.406;13.416;2023-03-03T05:27:27;101884.46;;;-0.45;80.68
74790;BME280;63318;52.406;13.416;2023-03-03T05:29:55;101891.53;;;-0.47;80.66
74790;BME280;63318;52.406;13.416;2023-03-03T05:32:23;101893.63;;;-0.47;80.77
74790;BME280;63318;52.406;13.416;2023-03-03T05:34:52;101891.36;;;-0.48;80.70
74790;BME280;63318;52.406;13.416;2023-03-03T05:37:20;101894.88;;;-0.49;80.68
74790;BME280;63318;52.406;13.416;2023-03-03T05:39:48;101894.17;;;-0.49;80.59
74790;BME280;63318;52.406;13.416;2023-03-03T05:42:17;101900.05;;;-0.49;80.78
74790;BME280;63318;52.406;13.416;2023-03-03T05:44:45;101902.05;;;-0.49;80.86
74790;BME280;63318;52.406;13.416;2023-03-03T05:47:14;101897.71;;;-0.50;80.84
74790;BME280;63318;52.406;13.416;2023-03-03T05:49:42;101900.59;;;-0.49;80.92
74790;BME280;63318;52.406;13.416;2023-03-03T05:52:10;101902.73;;;-0.49;81.16
74790;BME280;63318;52.406;13.416;2023-03-03T05:54:38;101908.33;;;-0.49;81.18
74790;BME280;63318;52.406;13.416;2023-03-03T05:57:07;101912.14;;;-0.49;81.19
74790;BME280;63318;52.406;13.416;2023-03-03T05:59:35;101919.31;;;-0.49;81.04
74790;BME280;63318;52.406;13.416;2023-03-03T06:02:04;101917.43;;;-0.50;80.95
74790;BME280;63318;52.406;13.416;2023-03-03T06:04:32;101921.25;;;-0.50;81.54
74790;BME280;63318;52.406;13.416;2023-03-03T06:07:00;101916.11;;;-0.50;81.01
74790;BME280;63318;52.406;13.416;2023-03-03T06:09:29;101917.30;;;-0.49;81.16
74790;BME280;63318;52.406;13.416;2023-03-03T06:11:58;101923.77;;;-0.49;81.18
74790;BME280;63318;52.406;13.416;2023-03-03T06:14:26;101927.29;;;-0.47;81.32
74790;BME280;63318;52.406;13.416;2023-03-03T06:16:54;101924.73;;;-0.47;81.52
74790;BME280;63318;52.406;13.416;2023-03-03T06:19:22;101924.93;;;-0.47;81.03
74790;BME280;63318;52.406;13.416;2023-03-03T06:21:51;101918.72;;;-0.47;81.01
74790;BME280;63318;52.406;13.416;2023-03-03T06:24:19;101922.88;;;-0.47;81.10
74790;BME280;63318;52.406;13.416;2023-03-03T06:26:47;101927.44;;;-0.47;81.36
74790;BME280;63318;52.406;13.416;2023-03-03T06:29:15;101932.10;;;-0.47;81.17
74790;BME280;63318;52.406;13.416;2023-03-03T06:31:43;101935.13;;;-0.46;81.08
74790;BME280;63318;52.406;13.416;2023-03-03T06:34:13;101940.64;;;-0.47;81.10
74790;BME280;63318;52.406;13.416;2023-03-03T06:36:41;101943.23;;;-0.47;81.16
74790;BME280;63318;52.406;13.416;2023-03-03T06:39:10;101942.59;;;-0.46;81.18
74790;BME280;63318;52.406;13.416;2023-03-03T06:41:39;101947.23;;;-0.45;81.50
74790;BME280;63318;52.406;13.416;2023-03-03T06:44:07;101952.42;;;-0.44;81.47
74790;BME280;63318;52.406;13.416;2023-03-03T06:46:35;101948.84;;;-0.45;81.33
74790;BME280;63318;52.406;13.416;2023-03-03T06:49:03;101946.64;;;-0.45;81.22
74790;BME280;63318;52.406;13.416;2023-03-03T06:51:34;101942.61;;;-0.45;81.38
74790;BME280;63318;52.406;13.416;2023-03-03T06:54:08;101944.40;;;-0.43;81.36
74790;BME280;63318;52.406;13.416;2023-03-03T06:56:38;101947.52;;;-0.42;81.44
74790;BME280;63318;52.406;13.416;2023-03-03T06:59:13;101953.13;;;-0.41;81.44
74790;BME280;63318;52.406;13.416;2023-03-03T07:01:46;101962.58;;;-0.41;81.59
74790;BME280;63318;52.406;13.416;2023-03-03T07:04:25;101968.92;;;-0.41;81.52
74790;BME280;63318;52.406;13.416;2023-03-03T07:06:54;101972.27;;;-0.40;81.85
74790;BME280;63318;52.406;13.416;2023-03-03T07:09:24;101973.02;;;-0.39;81.28
74790;BME280;63318;52.406;13.416;2023-03-03T07:11:55;101974.94;;;-0.38;81.41
74790;BME280;63318;52.406;13.416;2023-03-03T07:14:24;101983.73;;;-0.38;81.33
74790;BME280;63318;52.406;13.416;2023-03-03T07:16:57;101981.31;;;-0.38;81.29
74790;BME280;63318;52.406;13.416;2023-03-03T07:19:33;101984.83;;;-0.38;81.29
74790;BME280;63318;52.406;13.416;2023-03-03T07:22:11;101985.91;;;-0.38;81.33
74790;BME280;63318;52.406;13.416;2023-03-03T07:24:42;101983.98;;;-0.37;81.49
74790;BME280;63318;52.406;13.416;2023-03-03T07:27:15;101974.75;;;-0.36;81.49
74790;BME280;63318;52.406;13.416;2023-03-03T07:29:47;101974.37;;;-0.34;81.65
74790;BME280;63318;52.406;13.416;2023-03-03T07:32:25;101972.37;;;-0.33;81.67
74790;BME280;63318;52.406;13.416;2023-03-03T07:34:55;101976.63;;;-0.30;81.64
74790;BME280;63318;52.406;13.416;2023-03-03T07:37:29;101984.61;;;-0.28;81.36
74790;BME280;63318;52.406;13.416;2023-03-03T07:39:59;101995.48;;;-0.28;81.54
74790;BME280;63318;52.406;13.416;2023-03-03T07:42:32;101995.73;;;-0.27;81.21
74790;BME280;63318;52.406;13.416;2023-03-03T07:45:23;101995.38;;;-0.28;81.34
74790;BME280;63318;52.406;13.416;2023-03-03T07:47:57;101999.34;;;-0.27;81.29
74790;BME280;63318;52.406;13.416;2023-03-03T07:50:28;101999.89;;;-0.27;81.37
74790;BME280;63318;52.406;13.416;2023-03-03T07:52:58;102001.15;;;-0.27;81.57
74790;BME280;63318;52.406;13.416;2023-03-03T07:55:32;102002.61;;;-0.25;81.47
74790;BME280;63318;52.406;13.416;2023-03-03T07:58:25;102001.27;;;-0.23;81.23
74790;BME280;63318;52.406;13.416;2023-03-03T08:03:53;102001.27;;;-0.19;81.75
74790;BME280;63318;52.406;13.416;2023-03-03T08:06:41;102002.66;;;-0.16;81.67
74790;BME280;63318;52.406;13.416;2023-03-03T08:12:28;102001.83;;;-0.11;81.64
74790;BME280;63318;52.406;13.416;2023-03-03T08:15:04;102000.40;;;-0.08;81.72
74790;BME280;63318;52.406;13.416;2023-03-03T08:17:39;102000.73;;;-0.06;81.76
74790;BME280;63318;52.406;13.416;2023-03-03T08:20:44;102004.38;;;-0.03;81.68
74790;BME280;63318;52.406;13.416;2023-03-03T08:23:17;102008.40;;;-0.02;81.74
74790;BME280;63318;52.406;13.416;2023-03-03T08:25:47;102005.95;;;-0.01;81.39
74790;BME280;63318;52.406;13.416;2023-03-03T08:28:16;101998.02;;;0.00;81.69
74790;BME280;63318;52.406;13.416;2023-03-03T08:30:44;102000.45;;;0.02;81.56
74790;BME280;63318;52.406;13.416;2023-03-03T08:33:13;102000.40;;;0.04;81.95
74790;BME280;63318;52.406;13.416;2023-03-03T08:35:42;101995.52;;;0.07;81.98
74790;BME280;63318;52.406;13.416;2023-03-03T08:38:12;101996.53;;;0.10;81.50
74790;BME280;63318;52.406;13.416;2023-03-03T08:40:41;102004.80;;;0.14;81.45
74790;BME280;63318;52.406;13.416;2023-03-03T08:43:09;101998.16;;;0.18;81.60
74790;BME280;63318;52.406;13.416;2023-03-03T08:45:37;101995.42;;;0.21;81.36
74790;BME280;63318;52.406;13.416;2023-03-03T08:48:06;101998.27;;;0.23;81.32
74790;BME280;63318;52.406;13.416;2023-03-03T08:50:34;102003.85;;;0.24;81.29
74790;BME280;63318;52.406;13.416;2023-03-03T08:53:03;102005.48;;;0.26;81.57
74790;BME280;63318;52.406;13.416;2023-03-03T08:55:31;102007.19;;;0.26;81.43
74790;BME280;63318;52.406;13.416;2023-03-03T08:58:00;102007.83;;;0.29;81.68
74790;BME280;63318;52.406;13.416;2023-03-03T09:00:28;102009.46;;;0.32;81.37
74790;BME280;63318;52.406;13.416;2023-03-03T09:02:56;102011.13;;;0.35;81.57
74790;BME280;63318;52.406;13.416;2023-03-03T09:05:25;102012.52;;;0.39;81.66
74790;BME280;63318;52.406;13.416;2023-03-03T09:07:54;102011.42;;;0.43;81.53
74790;BME280;63318;52.406;13.416;2023-03-03T09:10:24;102009.13;;;0.47;81.60
74790;BME280;63318;52.406;13.416;2023-03-03T09:12:52;102006.65;;;0.51;81.36
74790;BME280;63318;52.406;13.416;2023-03-03T09:15:24;102005.94;;;0.53;81.45
74790;BME280;63318;52.406;13.416;2023-03-03T09:17:53;101995.98;;;0.54;81.35
74790;BME280;63318;52.406;13.416;2023-03-03T09:20:38;101997.84;;;0.56;81.36
74790;BME280;63318;52.406;13.416;2023-03-03T09:23:29;101999.02;;;0.60;81.34
74790;BME280;63318;52.406;13.416;2023-03-03T09:26:17;101996.88;;;0.64;81.12
74790;BME280;63318;52.406;13.416;2023-03-03T09:28:49;101997.78;;;0.68;81.33
74790;BME280;63318;52.406;13.416;2023-03-03T09:31:25;102000.35;;;0.72;81.62
74790;BME280;63318;52.406;13.416;2023-03-03T09:33:54;101999.13;;;0.80;81.39
74790;BME280;63318;52.406;13.416;2023-03-03T09:36:25;101992.05;;;0.84;81.02
74790;BME280;63318;52.406;13.416;2023-03-03T09:38:55;101994.31;;;0.89;80.93
74790;BME280;63318;52.406;13.416;2023-03-03T09:41:54;101994.66;;;0.97;81.10
74790;BME280;63318;52.406;13.416;2023-03-03T09:44:47;101994.23;;;1.04;81.02
74790;BME280;63318;52.406;13.416;2023-03-03T09:47:32;101992.13;;;1.09;80.69
74790;BME280;63318;52.406;13.416;2023-03-03T09:50:15;101998.34;;;1.15;80.99
74790;BME280;63318;52.406;13.416;2023-03-03T09:52:53;102000.79;;;1.22;80.88
74790;BME280;63318;52.406;13.416;2023-03-03T09:55:35;102005.45;;;1.29;80.94
74790;BME280;63318;52.406;13.416;2023-03-03T09:58:20;101999.77;;;1.35;80.71
74790;BME280;63318;52.406;13.416;2023-03-03T10:00:57;102006.45;;;1.42;80.78
74790;BME280;63318;52.406;13.416;2023-03-03T10:03:47;102003.45;;;1.48;80.69
74790;BME280;63318;52.406;13.416;2023-03-03T10:06:26;101994.59;;;1.55;81.17
74790;BME280;63318;52.406;13.416;2023-03-03T10:09:09;101997.52;;;1.61;80.71
74790;BME280;63318;52.406;13.416;2023-03-03T10:11:51;101998.52;;;1.68;80.90
74790;BME280;63318;52.406;13.416;2023-03-03T10:17:33;101996.13;;;1.84;80.51
74790;BME280;63318;52.406;13.416;2023-03-03T10:20:21;101996.86;;;1.90;80.22
74790;BME280;63318;52.406;13.416;2023-03-03T10:22:54;101997.86;;;1.95;80.12
74790;BME280;63318;52.406;13.416;2023-03-03T10:25:31;101998.09;;;1.99;80.12
74790;BME280;63318;52.406;13.416;2023-03-03T10:28:25;101995.09;;;2.04;79.85
74790;BME280;63318;52.406;13.416;2023-03-03T10:31:00;101996.65;;;2.09;80.05
74790;BME280;63318;52.406;13.416;2023-03-03T10:33:38;101992.56;;;2.16;79.75
74790;BME280;63318;52.406;13.416;2023-03-03T10:36:27;101986.23;;;2.24;80.10
74790;BME280;63318;52.406;13.416;2023-03-03T10:39:06;101987.20;;;2.32;79.95
74790;BME280;63318;52.406;13.416;2023-03-03T10:41:54;101989.18;;;2.38;79.77
74790;BME280;63318;52.406;13.416;2023-03-03T10:44:52;101994.20;;;2.45;80.24
74790;BME280;63318;52.406;13.416;2023-03-03T10:47:40;101991.85;;;2.49;79.43
74790;BME280;63318;52.406;13.416;2023-03-03T10:52:47;101991.45;;;2.55;79.50
74790;BME280;63318;52.406;13.416;2023-03-03T10:55:32;101989.32;;;2.59;79.14
74790;BME280;63318;52.406;13.416;2023-03-03T10:58:18;101993.86;;;2.60;79.15
74790;BME280;63318;52.406;13.416;2023-03-03T11:00:54;101989.92;;;2.63;78.97
74790;BME280;63318;52.406;13.416;2023-03-03T11:03:54;101992.98;;;2.64;79.00
74790;BME280;63318;52.406;13.416;2023-03-03T11:06:31;101994.49;;;2.70;79.29
74790;BME280;63318;52.406;13.416;2023-03-03T11:09:11;101997.54;;;2.75;79.20
74790;BME280;63318;52.406;13.416;2023-03-03T11:11:48;101997.20;;;2.77;78.93
74790;BME280;63318;52.406;13.416;2023-03-03T11:14:22;102000.57;;;2.79;78.76
74790;BME280;63318;52.406;13.416;2023-03-03T11:16:59;101999.34;;;2.84;78.80
74790;BME280;63318;52.406;13.416;2023-03-03T11:19:39;101993.88;;;2.90;78.84
74790;BME280;63318;52.406;13.416;2023-03-03T11:22:23;101995.08;;;2.94;78.67
74790;BME280;63318;52.406;13.416;2023-03-03T11:25:02;101993.95;;;2.96;78.51
74790;BME280;63318;52.406;13.416;2023-03-03T11:28:02;101991.14;;;2.98;78.56
74790;BME280;63318;52.406;13.416;2023-03-03T11:30:48;101992.57;;;3.00;78.57
74790;BME280;63318;52.406;13.416;2023-03-03T11:33:24;101993.91;;;3.03;78.60
74790;BME280;63318;52.406;13.416;2023-03-03T11:36:06;101992.45;;;3.07;78.42
74790;BME280;63318;52.406;13.416;2023-03-03T11:38:44;101993.60;;;3.10;78.39
74790;BME280;63318;52.406;13.416;2023-03-03T11:41:22;101996.02;;;3.11;78.57
74790;BME280;63318;52.406;13.416;2023-03-03T11:43:55;101994.94;;;3.12;78.48
74790;BME280;63318;52.406;13.416;2023-03-03T11:46:28;101992.12;;;3.13;78.44
74790;BME280;63318;52.406;13.416;2023-03-03T11:49:01;101988.30;;;3.15;78.51
74790;BME280;63318;52.406;13.416;2023-03-03T11:51:43;101986.84;;;3.17;78.24
74790;BME280;63318;52.406;13.416;2023-03-03T11:54:19;101985.91;;;3.21;78.35
74790;BME280;63318;52.406;13.416;2023-03-03T11:56:50;101989.88;;;3.26;78.11
74790;BME280;63318;52.406;13.416;2023-03-03T11:59:39;101982.60;;;3.28;78.36
74790;BME280;63318;52.406;13.416;2023-03-03T12:05:12;101971.08;;;3.32;78.13
74790;BME280;63318;52.406;13.416;2023-03-03T12:07:49;101970.00;;;3.35;78.21
74790;BME280;63318;52.406;13.416;2023-03-03T12:10:29;101965.14;;;3.34;78.21
74790;BME280;63318;52.406;13.416;2023-03-03T12:13:04;101954.15;;;3.36;78.04
74790;BME280;63318;52.406;13.416;2023-03-03T12:15:39;101945.58;;;3.39;77.80
74790;BME280;63318;52.406;13.416;2023-03-03T12:18:29;101940.96;;;3.43;77.93
74790;BME280;63318;52.406;13.416;2023-03-03T12:21:12;101936.64;;;3.48;78.30
74790;BME280;63318;52.406;13.416;2023-03-03T12:26:49;101936.98;;;3.62;78.00
74790;BME280;63318;52.406;13.416;2023-03-03T12:29:26;101937.35;;;3.66;77.91
74790;BME280;63318;52.406;13.416;2023-03-03T12:32:01;101933.52;;;3.69;77.98
74790;BME280;63318;52.406;13.416;2023-03-03T12:34:33;101922.93;;;3.73;77.58
74790;BME280;63318;52.406;13.416;2023-03-03T12:37:24;101915.61;;;3.77;77.65
74790;BME280;63318;52.406;13.416;2023-03-03T12:40:04;101909.08;;;3.82;77.57
74790;BME280;63318;52.406;13.416;2023-03-03T12:42:44;101909.58;;;3.86;77.44
74790;BME280;63318;52.406;13.416;2023-03-03T12:45:27;101907.45;;;3.90;77.38
74790;BME280;63318;52.406;13.416;2023-03-03T12:48:03;101908.36;;;3.93;77.43
74790;BME280;63318;52.406;13.416;2023-03-03T12:50:41;101905.08;;;3.95;77.53
74790;BME280;63318;52.406;13.416;2023-03-03T12:53:22;101907.40;;;3.96;77.27
74790;BME280;63318;52.406;13.416;2023-03-03T12:55:54;101906.73;;;3.97;77.14
74790;BME280;63318;52.406;13.416;2023-03-03T12:58:35;101909.42;;;3.96;77.03
74790;BME280;63318;52.406;13.416;2023-03-03T13:01:17;101904.57;;;3.96;77.05
74790;BME280;63318;52.406;13.416;2023-03-03T13:03:54;101900.03;;;3.99;77.20
74790;BME280;63318;52.406;13.416;2023-03-03T13:06:28;101894.70;;;4.00;77.32
74790;BME280;63318;52.406;13.416;2023-03-03T13:08:59;101896.27;;;4.01;76.92
74790;BME280;63318;52.406;13.416;2023-03-03T13:11:39;101895.50;;;4.01;77.06
74790;BME280;63318;52.406;13.416;2023-03-03T13:14:18;101896.98;;;4.02;77.19
74790;BME280;63318;52.406;13.416;2023-03-03T13:16:59;101892.99;;;4.04;76.95
74790;BME280;63318;52.406;13.416;2023-03-03T13:19:32;101892.48;;;4.03;76.92
74790;BME280;63318;52.406;13.416;2023-03-03T13:22:09;101889.66;;;4.05;76.85
74790;BME280;63318;52.406;13.416;2023-03-03T13:24:48;101881.94;;;4.08;77.06
74790;BME280;63318;52.406;13.416;2023-03-03T13:27:21;101879.11;;;4.12;76.98
74790;BME280;63318;52.406;13.416;2023-03-03T13:29:58;101879.94;;;4.17;76.94
74790;BME280;63318;52.406;13.416;2023-03-03T13:32:33;101882.59;;;4.22;76.94
74790;BME280;63318;52.406;13.416;2023-03-03T13:35:08;101880.95;;;4.26;76.68